createdAt,value
2022-10-22T00:01:28.582Z,99868.84
2022-10-22T00:05:44.776Z,99882.72
2022-10-22T00:10:01.094Z,99860.66
2022-10-22T00:14:17.611Z,99853.84
2022-10-22T00:18:33.737Z,99883.81
2022-10-22T00:27:12.476Z,99883.00
2022-10-22T00:31:28.609Z,99877.94
2022-10-22T00:35:45.336Z,99877.59
2022-10-22T00:40:01.498Z,99866.16
2022-10-22T00:44:55.055Z,99863.41
2022-10-22T00:49:11.250Z,99863.66
2022-10-22T00:53:39.909Z,99866.13
2022-10-22T00:57:57.731Z,99870.09
2022-10-22T01:02:13.910Z,99872.53
2022-10-22T01:06:34.851Z,99869.91
2022-10-22T01:11:17.467Z,99860.31
2022-10-22T01:15:46.086Z,99864.78
2022-10-22T01:20:29.647Z,99848.34
2022-10-22T01:24:49.285Z,99851.38
2022-10-22T01:29:19.121Z,99850.31
2022-10-22T01:33:36.568Z,99843.81
2022-10-22T01:37:59.607Z,99839.44
2022-10-22T01:42:15.760Z,99828.09
2022-10-22T01:46:32.636Z,99820.94
2022-10-22T01:51:03.985Z,99809.38
2022-10-22T01:55:29.040Z,99816.53
2022-10-22T01:59:50.848Z,99817.31
2022-10-22T02:04:19.181Z,99813.09
2022-10-22T02:08:36.027Z,99803.63
2022-10-22T02:12:54.890Z,99807.09
2022-10-22T02:17:16.166Z,99801.09
2022-10-22T02:21:32.458Z,99804.69
2022-10-22T02:25:51.887Z,99782.09
2022-10-22T02:34:37.769Z,99785.38
2022-10-22T02:38:54.550Z,99789.09
2022-10-22T02:43:11.011Z,99803.09
2022-10-22T02:47:27.229Z,99811.13
2022-10-22T02:51:43.466Z,99820.91
2022-10-22T02:56:00.394Z,99841.25
2022-10-22T03:00:17.059Z,99837.44
2022-10-22T03:04:33.252Z,99847.25
2022-10-22T03:08:49.508Z,99845.66
2022-10-22T03:13:05.667Z,99838.59
2022-10-22T03:17:21.775Z,99847.31
2022-10-22T03:21:52.313Z,99830.97
2022-10-22T03:26:08.824Z,99821.09
2022-10-22T03:30:24.956Z,99805.78
2022-10-22T03:34:41.145Z,99795.66
2022-10-22T03:38:57.211Z,99785.59
2022-10-22T03:43:13.525Z,99788.16
2022-10-22T03:47:29.601Z,99787.63
2022-10-22T03:51:45.729Z,99792.84
2022-10-22T03:56:01.985Z,99793.31
2022-10-22T04:00:18.334Z,99795.00
2022-10-22T04:04:34.695Z,99796.09
2022-10-22T04:08:51.079Z,99807.53
2022-10-22T04:13:07.280Z,99788.47
2022-10-22T04:17:23.495Z,99793.81
2022-10-22T04:21:39.597Z,99793.88
2022-10-22T04:26:00.500Z,99785.19
2022-10-22T04:30:16.744Z,99785.81
2022-10-22T04:34:32.818Z,99780.09
2022-10-22T04:38:52.890Z,99778.72
2022-10-22T04:43:09.032Z,99797.25
2022-10-22T04:47:25.276Z,99809.56
2022-10-22T04:51:41.764Z,99809.25
2022-10-22T04:56:11.673Z,99800.00
2022-10-22T05:00:28.006Z,99780.37
2022-10-22T05:04:45.308Z,99775.47
2022-10-22T05:09:04.083Z,99767.56
2022-10-22T05:13:20.406Z,99763.75
2022-10-22T05:17:37.768Z,99755.03
2022-10-22T05:21:56.037Z,99761.28
2022-10-22T05:26:14.014Z,99773.81
2022-10-22T05:30:30.253Z,99775.19
2022-10-22T05:34:46.371Z,99789.63
2022-10-22T05:39:02.555Z,99793.75
2022-10-22T05:43:18.722Z,99818.66
2022-10-22T05:47:34.879Z,99814.12
2022-10-22T05:51:51.043Z,99811.16
2022-10-22T05:56:11.151Z,99801.91
2022-10-22T06:00:27.351Z,99809.81
2022-10-22T06:04:43.595Z,99818.81
2022-10-22T06:09:03.332Z,99825.34
2022-10-22T06:13:19.446Z,99842.53
2022-10-22T06:17:35.566Z,99843.09
2022-10-22T06:21:51.706Z,99838.72
2022-10-22T06:26:09.247Z,99838.72
2022-10-22T06:30:25.527Z,99822.09
2022-10-22T06:34:41.656Z,99820.97
2022-10-22T06:38:57.927Z,99803.37
2022-10-22T06:43:14.824Z,99836.50
2022-10-22T06:47:33.591Z,99831.66
2022-10-22T06:51:53.922Z,99830.91
2022-10-22T06:56:15.513Z,99823.66
2022-10-22T07:04:47.826Z,99840.94
2022-10-22T07:09:04.296Z,99830.97
2022-10-22T07:13:21.255Z,99836.91
2022-10-22T07:17:37.398Z,99845.31
2022-10-22T07:21:54.640Z,99846.72
2022-10-22T07:26:14.199Z,99851.22
2022-10-22T07:30:30.438Z,99849.47
2022-10-22T07:34:46.548Z,99839.09
2022-10-22T07:39:03.736Z,99820.81
2022-10-22T07:43:20.226Z,99805.44
2022-10-22T07:47:36.671Z,99801.25
2022-10-22T07:51:52.880Z,99805.88
2022-10-22T07:56:09.228Z,99800.59
2022-10-22T08:00:25.575Z,99800.22
2022-10-22T08:04:42.253Z,99798.25
2022-10-22T08:08:58.434Z,99815.34
2022-10-22T08:13:15.427Z,99808.31
2022-10-22T08:17:31.608Z,99813.97
2022-10-22T08:21:48.387Z,99803.34
2022-10-22T08:26:04.968Z,99811.13
2022-10-22T08:30:21.463Z,99828.19
2022-10-22T08:34:37.573Z,99833.56
2022-10-22T08:38:54.063Z,99825.09
2022-10-22T08:43:16.350Z,99815.00
2022-10-22T08:47:59.979Z,99823.75
2022-10-22T08:52:19.069Z,99830.34
2022-10-22T08:56:37.007Z,99836.28
2022-10-22T09:01:18.335Z,99835.94
2022-10-22T09:10:13.311Z,99851.38
2022-10-22T09:14:30.167Z,99844.44
2022-10-22T09:19:08.415Z,99820.44
2022-10-22T09:23:40.141Z,99812.13
2022-10-22T09:27:58.818Z,99822.66
2022-10-22T09:32:18.690Z,99837.12
2022-10-22T09:36:36.239Z,99844.50
2022-10-22T09:40:54.570Z,99831.13
2022-10-22T09:45:26.963Z,99845.78
2022-10-22T09:49:43.386Z,99847.47
2022-10-22T09:54:02.124Z,99839.47
2022-10-22T09:58:19.078Z,99833.69
2022-10-22T10:02:38.747Z,99822.75
2022-10-22T10:07:00.021Z,99809.16
2022-10-22T10:11:43.629Z,99806.28
2022-10-22T10:16:29.230Z,99807.84
2022-10-22T10:21:10.930Z,99801.06
2022-10-22T10:25:36.339Z,99803.69
2022-10-22T10:30:14.194Z,99807.34
2022-10-22T10:35:20.145Z,99792.81
2022-10-22T10:39:44.921Z,99792.44
2022-10-22T10:44:16.046Z,99812.53
2022-10-22T10:48:55.971Z,99819.78
2022-10-22T10:53:33.916Z,99837.47
2022-10-22T10:58:19.689Z,99831.91
2022-10-22T11:03:03.802Z,99842.75
2022-10-22T11:07:35.264Z,99822.00
2022-10-22T11:12:01.118Z,99811.72
2022-10-22T11:16:37.515Z,99820.56
2022-10-22T11:20:57.427Z,99830.44
2022-10-22T11:25:13.550Z,99822.56
2022-10-22T11:29:41.202Z,99824.09
2022-10-22T11:34:32.582Z,99820.81
2022-10-22T11:38:50.215Z,99809.72
2022-10-22T11:43:11.277Z,99803.16
2022-10-22T11:47:33.272Z,99802.78
2022-10-22T11:51:50.172Z,99792.41
2022-10-22T11:56:10.882Z,99799.59
2022-10-22T12:00:48.285Z,99817.44
2022-10-22T12:05:33.455Z,99802.59
2022-10-22T12:14:45.784Z,99812.09
2022-10-22T12:19:23.476Z,99800.28
2022-10-22T12:23:39.595Z,99791.53
2022-10-22T12:28:00.025Z,99775.41
2022-10-22T12:32:17.067Z,99780.75
2022-10-22T12:36:36.014Z,99784.47
2022-10-22T12:40:55.775Z,99791.50
2022-10-22T12:45:11.971Z,99800.34
2022-10-22T12:49:38.907Z,99793.56
2022-10-22T12:54:02.363Z,99795.44
2022-10-22T12:58:20.375Z,99804.00
2022-10-22T13:02:36.430Z,99803.69
2022-10-22T13:07:17.009Z,99810.75
2022-10-22T13:11:41.589Z,99801.78
2022-10-22T13:16:12.687Z,99789.31
2022-10-22T13:20:29.020Z,99800.94
2022-10-22T13:24:51.616Z,99797.16
2022-10-22T13:29:12.711Z,99814.22
2022-10-22T13:33:42.659Z,99833.22
2022-10-22T13:37:59.515Z,99809.72
2022-10-22T13:42:15.623Z,99813.38
2022-10-22T13:46:32.252Z,99809.91
2022-10-22T13:50:51.957Z,99810.31
2022-10-22T13:55:29.478Z,99818.56
2022-10-22T13:59:45.710Z,99823.16
2022-10-22T14:04:04.781Z,99829.88
2022-10-22T14:08:23.294Z,99838.47
2022-10-22T14:12:39.389Z,99837.50
2022-10-22T14:16:55.480Z,99844.22
2022-10-22T14:21:13.492Z,99841.63
2022-10-22T14:25:31.891Z,99840.94
2022-10-22T14:29:48.075Z,99835.09
2022-10-22T14:34:04.173Z,99827.53
2022-10-22T14:38:20.845Z,99837.56
2022-10-22T14:42:42.956Z,99838.38
2022-10-22T14:46:59.333Z,99865.63
2022-10-22T14:51:17.810Z,99858.09
2022-10-22T14:55:34.359Z,99860.84
2022-10-22T14:59:50.661Z,99855.03
2022-10-22T15:04:06.778Z,99848.09
2022-10-22T15:08:22.975Z,99856.59
2022-10-22T15:12:39.268Z,99854.28
2022-10-22T15:16:55.333Z,99854.38
2022-10-22T15:21:19.937Z,99874.78
2022-10-22T15:25:36.051Z,99845.88
2022-10-22T15:29:52.275Z,99851.38
2022-10-22T15:34:08.412Z,99843.13
2022-10-22T15:42:46.858Z,99856.25
2022-10-22T15:47:07.498Z,99859.41
2022-10-22T15:51:24.292Z,99864.56
2022-10-22T15:55:40.753Z,99856.19
2022-10-22T15:59:56.939Z,99869.63
2022-10-22T16:04:13.565Z,99865.09
2022-10-22T16:08:30.095Z,99871.31
2022-10-22T16:12:46.594Z,99881.22
2022-10-22T16:17:02.723Z,99895.88
2022-10-22T16:21:20.611Z,99915.38
2022-10-22T16:25:43.760Z,99927.56
2022-10-22T16:29:59.912Z,99932.28
2022-10-22T16:34:16.057Z,99952.22
2022-10-22T16:38:32.247Z,99946.75
2022-10-22T16:42:48.671Z,99958.88
2022-10-22T16:47:04.811Z,99952.25
2022-10-22T16:51:23.886Z,99967.44
2022-10-22T16:55:41.291Z,99977.84
2022-10-22T16:59:57.756Z,99966.38
2022-10-22T17:04:14.276Z,99977.44
2022-10-22T17:08:31.077Z,99974.62
2022-10-22T17:12:48.314Z,99968.84
2022-10-22T17:17:04.446Z,99984.13
2022-10-22T17:21:21.289Z,99988.34
2022-10-22T17:25:42.994Z,99981.59
2022-10-22T17:29:59.095Z,99985.69
2022-10-22T17:34:19.068Z,99988.19
2022-10-22T17:38:35.643Z,99981.69
2022-10-22T17:42:51.829Z,99989.97
2022-10-22T17:47:08.016Z,99991.53
2022-10-22T17:51:25.060Z,99995.66
2022-10-22T17:55:41.764Z,100011.16
2022-10-22T17:59:57.892Z,100005.72
2022-10-22T18:04:19.446Z,99993.13
2022-10-22T18:08:36.245Z,100006.97
2022-10-22T18:12:52.478Z,100003.34
2022-10-22T18:17:08.773Z,100015.88
2022-10-22T18:21:27.983Z,100024.28
2022-10-22T18:25:44.263Z,100026.91
2022-10-22T18:30:00.410Z,100018.56
2022-10-22T18:34:21.591Z,100024.63
2022-10-22T18:38:40.216Z,100032.16
2022-10-22T18:42:56.917Z,100036.47
2022-10-22T18:47:13.127Z,100035.88
2022-10-22T18:51:31.730Z,100043.81
2022-10-22T18:55:47.906Z,100062.50
2022-10-22T19:00:05.131Z,100072.78
2022-10-22T19:04:21.315Z,100081.37
2022-10-22T19:08:38.029Z,100068.41
2022-10-22T19:12:54.664Z,100064.72
2022-10-22T19:17:10.866Z,100073.88
2022-10-22T19:21:27.036Z,100070.38
2022-10-22T19:25:43.270Z,100073.66
2022-10-22T19:29:59.399Z,100070.53
2022-10-22T19:34:20.159Z,100080.41
2022-10-22T19:38:40.794Z,100090.00
2022-10-22T19:42:57.109Z,100093.22
2022-10-22T19:47:13.334Z,100085.19
2022-10-22T19:51:30.693Z,100100.81
2022-10-22T19:55:47.078Z,100095.44
2022-10-22T20:00:03.760Z,100114.97
2022-10-22T20:04:20.061Z,100113.34
2022-10-22T20:08:40.059Z,100127.31
2022-10-22T20:12:56.276Z,100126.50
2022-10-22T20:17:12.869Z,100128.69
2022-10-22T20:21:29.443Z,100131.09
2022-10-22T20:25:47.862Z,100136.38
2022-10-22T20:30:06.020Z,100135.72
2022-10-22T20:34:22.330Z,100141.84
2022-10-22T20:38:38.555Z,100139.84
2022-10-22T20:42:54.644Z,100145.06
2022-10-22T20:47:12.620Z,100142.28
2022-10-22T20:51:29.523Z,100150.09
2022-10-22T20:55:46.067Z,100154.25
2022-10-22T21:00:02.252Z,100146.56
2022-10-22T21:04:20.012Z,100147.66
2022-10-22T21:08:36.131Z,100153.44
2022-10-22T21:12:52.380Z,100163.91
2022-10-22T21:17:08.836Z,100156.94
2022-10-22T21:21:25.052Z,100180.97
2022-10-22T21:25:43.380Z,100178.84
2022-10-22T21:30:00.653Z,100183.19
2022-10-22T21:34:17.871Z,100189.59
2022-10-22T21:38:35.201Z,100183.25
2022-10-22T21:42:51.588Z,100187.31
2022-10-22T21:47:07.949Z,100168.12
2022-10-22T21:51:25.732Z,100161.25
2022-10-22T21:55:42.018Z,100161.81
2022-10-22T21:59:58.225Z,100159.84
2022-10-22T22:04:14.375Z,100163.69
2022-10-22T22:08:30.783Z,100172.97
2022-10-22T22:12:47.087Z,100161.22
2022-10-22T22:17:03.220Z,100176.53
2022-10-22T22:21:21.355Z,100176.25
2022-10-22T22:25:37.563Z,100180.63
2022-10-22T22:29:54.792Z,100186.37
2022-10-22T22:34:16.799Z,100197.31
2022-10-22T22:38:33.238Z,100194.84
2022-10-22T22:42:49.850Z,100207.16
2022-10-22T22:47:06.118Z,100204.13
2022-10-22T22:51:22.309Z,100207.97
2022-10-22T22:55:38.447Z,100222.19
2022-10-22T22:59:54.659Z,100227.56
2022-10-22T23:04:22.783Z,100224.94
2022-10-22T23:08:39.223Z,100236.94
2022-10-22T23:12:55.375Z,100223.28
2022-10-22T23:17:11.524Z,100217.25
2022-10-22T23:21:30.431Z,100218.38
2022-10-22T23:25:46.597Z,100218.91
2022-10-22T23:30:02.904Z,100229.00
2022-10-22T23:34:21.358Z,100228.72
2022-10-22T23:38:39.410Z,100237.50
2022-10-22T23:42:55.678Z,100239.12
2022-10-22T23:47:11.932Z,100223.28
2022-10-22T23:51:28.548Z,100224.94
2022-10-22T23:55:45.405Z,100214.00
